createdAt,value
2019-04-16T00:02:53.479Z,47.17
2019-04-16T00:06:12.556Z,47.38
2019-04-16T00:09:30.015Z,47.55
2019-04-16T00:12:48.983Z,47.72
2019-04-16T00:15:53.292Z,48.04
2019-04-16T00:19:01.088Z,48.24
2019-04-16T00:22:24.710Z,48.01
2019-04-16T00:25:28.561Z,47.78
2019-04-16T00:28:32.415Z,47.86
2019-04-16T00:31:37.668Z,47.57
2019-04-16T00:34:44.572Z,47.48
2019-04-16T00:37:51.472Z,47.92
2019-04-16T00:40:53.869Z,47.79
2019-04-16T00:43:57.802Z,47.77
2019-04-16T00:47:01.695Z,47.59
2019-04-16T00:50:06.508Z,47.21
2019-04-16T00:53:10.446Z,47.32
2019-04-16T00:56:16.094Z,47.11
2019-04-16T00:59:21.390Z,47.31
2019-04-16T01:02:26.309Z,47.52
2019-04-16T01:05:35.053Z,47.11
2019-04-16T01:08:36.004Z,46.90
2019-04-16T01:11:40.592Z,47.11
2019-04-16T01:14:44.414Z,46.84
2019-04-16T01:17:48.322Z,46.77
2019-04-16T01:20:53.012Z,46.98
2019-04-16T01:24:00.348Z,46.96
2019-04-16T01:27:04.747Z,46.27
2019-04-16T01:30:10.227Z,46.37
2019-04-16T01:33:20.913Z,46.71
2019-04-16T01:36:43.434Z,46.46
2019-04-16T01:39:49.896Z,46.60
2019-04-16T01:42:54.674Z,46.84
2019-04-16T01:46:01.473Z,46.32
2019-04-16T01:49:09.725Z,46.44
2019-04-16T01:52:10.995Z,46.47
2019-04-16T01:55:15.232Z,46.10
2019-04-16T01:58:19.157Z,45.75
2019-04-16T02:01:23.176Z,45.72
2019-04-16T02:04:27.058Z,46.18
2019-04-16T02:07:31.423Z,45.89
2019-04-16T02:10:38.475Z,45.93
2019-04-16T02:13:45.798Z,46.19
2019-04-16T02:16:47.437Z,46.01
2019-04-16T02:19:51.346Z,45.51
2019-04-16T02:22:55.429Z,45.07
2019-04-16T02:25:59.442Z,45.43
2019-04-16T02:29:03.482Z,45.93
2019-04-16T02:32:07.566Z,45.56
2019-04-16T02:35:11.983Z,45.92
2019-04-16T02:38:16.411Z,46.01
2019-04-16T02:41:23.398Z,46.09
2019-04-16T02:44:26.243Z,46.25
2019-04-16T02:47:30.085Z,46.40
2019-04-16T02:50:41.932Z,46.51
2019-04-16T02:54:01.693Z,46.76
2019-04-16T02:57:28.012Z,46.24
2019-04-16T03:00:42.463Z,46.54
2019-04-16T03:04:00.843Z,46.76
2019-04-16T03:07:04.998Z,47.30
2019-04-16T03:10:12.259Z,47.18
2019-04-16T03:13:15.121Z,47.64
2019-04-16T03:16:26.938Z,47.42
2019-04-16T03:19:34.256Z,47.22
2019-04-16T03:22:38.200Z,47.49
2019-04-16T03:25:44.406Z,47.51
2019-04-16T03:28:48.481Z,47.78
2019-04-16T03:31:57.430Z,47.80
2019-04-16T03:34:58.318Z,48.33
2019-04-16T03:38:05.395Z,48.10
2019-04-16T03:41:08.342Z,48.07
2019-04-16T03:44:13.148Z,48.23
2019-04-16T03:47:19.159Z,48.09
2019-04-16T03:50:23.731Z,48.69
2019-04-16T03:53:27.970Z,48.77
2019-04-16T03:56:32.437Z,48.53
2019-04-16T03:59:36.350Z,48.44
2019-04-16T04:02:40.208Z,48.82
2019-04-16T04:05:46.973Z,48.46
2019-04-16T04:08:53.190Z,48.48
2019-04-16T04:11:57.218Z,48.98
2019-04-16T04:15:01.007Z,49.23
2019-04-16T04:18:07.858Z,48.87
2019-04-16T04:21:11.293Z,49.47
2019-04-16T04:24:15.032Z,49.29
2019-04-16T04:27:19.521Z,48.59
2019-04-16T04:30:25.745Z,48.72
2019-04-16T04:33:42.565Z,49.31
2019-04-16T04:36:45.540Z,49.19
2019-04-16T04:39:49.543Z,48.89
2019-04-16T04:42:53.392Z,49.19
2019-04-16T04:45:57.869Z,48.76
2019-04-16T04:49:01.748Z,49.03
2019-04-16T04:52:05.725Z,49.51
2019-04-16T04:55:09.722Z,49.60
2019-04-16T04:58:13.551Z,49.79
2019-04-16T05:01:17.518Z,49.74
2019-04-16T05:04:33.205Z,49.50
2019-04-16T05:07:37.345Z,49.92
2019-04-16T05:10:43.239Z,49.31
2019-04-16T05:13:47.524Z,49.65
2019-04-16T05:16:52.101Z,49.65
2019-04-16T05:19:55.993Z,50.03
2019-04-16T05:23:00.015Z,49.94
2019-04-16T05:26:04.710Z,50.73
2019-04-16T05:29:16.305Z,50.72
2019-04-16T05:32:18.349Z,50.24
2019-04-16T05:35:22.201Z,50.41
2019-04-16T05:38:26.218Z,49.66
2019-04-16T05:41:30.187Z,49.46
2019-04-16T05:44:34.364Z,49.13
2019-04-16T05:47:38.314Z,49.64
2019-04-16T05:50:42.917Z,48.99
2019-04-16T05:53:50.939Z,48.85
2019-04-16T05:56:56.710Z,48.73
2019-04-16T06:00:03.283Z,48.19
2019-04-16T06:03:06.230Z,48.45
2019-04-16T06:06:10.167Z,48.58
2019-04-16T06:09:14.029Z,47.77
2019-04-16T06:12:18.605Z,47.72
2019-04-16T06:15:35.925Z,47.99
2019-04-16T06:18:49.770Z,48.42
2019-04-16T06:22:21.753Z,47.04
2019-04-16T06:25:41.095Z,47.40
2019-04-16T06:28:55.098Z,47.08
2019-04-16T06:32:18.494Z,47.32
2019-04-16T06:35:52.972Z,47.13
2019-04-16T06:39:04.786Z,46.99
2019-04-16T06:42:13.390Z,46.87
2019-04-16T06:45:36.542Z,46.79
2019-04-16T06:48:45.987Z,46.62
2019-04-16T06:52:08.174Z,46.40
2019-04-16T06:55:37.319Z,46.73
2019-04-16T06:58:51.280Z,46.24
2019-04-16T07:02:11.239Z,46.62
2019-04-16T07:05:33.011Z,46.68
2019-04-16T07:08:50.902Z,46.65
2019-04-16T07:11:58.416Z,46.32
2019-04-16T07:15:02.918Z,45.52
2019-04-16T07:18:07.127Z,45.59
2019-04-16T07:21:11.447Z,45.70
2019-04-16T07:24:15.789Z,45.28
2019-04-16T07:27:21.220Z,45.21
2019-04-16T07:30:38.416Z,45.26
2019-04-16T07:34:03.457Z,45.58
2019-04-16T07:37:12.529Z,45.30
2019-04-16T07:40:34.881Z,44.75
2019-04-16T07:43:57.006Z,44.29
2019-04-16T07:47:26.225Z,43.52
2019-04-16T07:50:53.029Z,43.47
2019-04-16T07:54:06.496Z,43.80
2019-04-16T07:57:10.331Z,42.96
2019-04-16T08:00:14.850Z,42.72
2019-04-16T08:03:18.678Z,43.38
2019-04-16T08:06:22.504Z,43.53
2019-04-16T08:09:29.915Z,43.11
2019-04-16T08:12:32.824Z,42.79
2019-04-16T08:15:37.142Z,42.86
2019-04-16T08:18:51.045Z,42.69
2019-04-16T08:21:55.417Z,43.51
2019-04-16T08:25:03.807Z,41.96
2019-04-16T08:28:07.781Z,43.02
2019-04-16T08:31:17.992Z,42.44
2019-04-16T08:34:21.869Z,42.04
2019-04-16T08:37:26.032Z,41.77
2019-04-16T08:40:30.007Z,41.95
2019-04-16T08:43:33.921Z,43.30
2019-04-16T08:46:40.130Z,41.50
2019-04-16T08:49:44.252Z,43.27
2019-04-16T08:52:48.094Z,41.57
2019-04-16T08:55:52.006Z,42.24
2019-04-16T08:59:00.249Z,42.21
2019-04-16T09:02:01.899Z,41.72
2019-04-16T09:05:11.061Z,41.65
2019-04-16T09:08:27.526Z,40.78
2019-04-16T09:11:35.110Z,40.70
2019-04-16T09:14:47.279Z,40.53
2019-04-16T09:17:58.817Z,40.58
2019-04-16T09:21:02.874Z,40.37
2019-04-16T09:24:44.596Z,40.52
2019-04-16T09:27:53.190Z,40.48
2019-04-16T09:31:27.924Z,38.75
2019-04-16T09:35:08.887Z,38.67
2019-04-16T09:38:22.936Z,38.00
2019-04-16T09:41:39.385Z,37.54
2019-04-16T09:44:43.352Z,37.54
2019-04-16T09:47:47.296Z,37.32
2019-04-16T09:50:51.280Z,37.32
2019-04-16T09:53:55.418Z,38.43
2019-04-16T09:56:59.990Z,38.22
2019-04-16T10:00:08.396Z,38.10
2019-04-16T10:03:28.262Z,37.18
2019-04-16T10:06:32.295Z,37.19
2019-04-16T10:09:36.279Z,37.91
2019-04-16T10:12:40.747Z,38.33
2019-04-16T10:15:44.755Z,36.92
2019-04-16T10:18:48.772Z,37.14
2019-04-16T10:21:54.239Z,37.14
2019-04-16T10:25:06.521Z,36.39
2019-04-16T10:28:17.338Z,37.05
2019-04-16T10:31:22.056Z,37.33
2019-04-16T10:34:26.919Z,37.06
2019-04-16T10:37:30.732Z,37.06
2019-04-16T10:40:40.212Z,36.67
2019-04-16T10:44:18.381Z,37.01
2019-04-16T10:47:50.377Z,38.44
2019-04-16T10:51:15.216Z,36.30
2019-04-16T10:54:23.930Z,36.30
2019-04-16T10:57:46.814Z,36.50
2019-04-16T11:01:08.681Z,37.27
2019-04-16T11:04:44.026Z,36.81
2019-04-16T11:07:49.496Z,36.87
2019-04-16T11:10:54.204Z,37.34
2019-04-16T11:14:00.370Z,38.33
2019-04-16T11:17:04.280Z,37.42
2019-04-16T11:20:08.491Z,36.62
2019-04-16T11:23:12.405Z,35.85
2019-04-16T11:26:16.595Z,36.06
2019-04-16T11:29:20.712Z,36.99
2019-04-16T11:32:27.736Z,37.45
2019-04-16T11:35:32.009Z,37.95
2019-04-16T11:38:36.088Z,37.71
2019-04-16T11:41:40.364Z,36.62
2019-04-16T11:44:44.355Z,37.06
2019-04-16T11:47:48.645Z,36.81
2019-04-16T11:50:53.238Z,37.10
2019-04-16T11:53:58.033Z,37.60
2019-04-16T11:57:02.449Z,37.53
2019-04-16T12:00:09.726Z,36.17
2019-04-16T12:03:41.811Z,36.20
2019-04-16T12:07:06.012Z,36.11
2019-04-16T12:10:24.323Z,35.64
2019-04-16T12:13:34.414Z,35.42
2019-04-16T12:17:04.932Z,35.23
2019-04-16T12:20:21.737Z,36.10
2019-04-16T12:23:41.180Z,36.06
2019-04-16T12:27:09.827Z,36.81
2019-04-16T12:30:45.364Z,36.24
2019-04-16T12:34:13.925Z,35.77
2019-04-16T12:37:43.616Z,36.16
2019-04-16T12:41:00.014Z,36.31
2019-04-16T12:44:24.486Z,36.17
2019-04-16T12:47:38.494Z,35.50
2019-04-16T12:50:58.052Z,35.46
2019-04-16T12:54:12.712Z,35.54
2019-04-16T12:57:38.819Z,35.01
2019-04-16T13:01:03.083Z,34.44
2019-04-16T13:04:25.655Z,35.12
2019-04-16T13:07:49.002Z,36.54
2019-04-16T13:11:11.880Z,36.30
2019-04-16T13:14:33.756Z,35.62
2019-04-16T13:17:56.335Z,34.95
2019-04-16T13:21:18.862Z,35.35
2019-04-16T13:24:27.882Z,35.96
2019-04-16T13:27:34.249Z,35.92
2019-04-16T13:30:38.251Z,36.09
2019-04-16T13:33:43.584Z,35.99
2019-04-16T13:36:51.517Z,36.16
2019-04-16T13:40:08.990Z,36.54
2019-04-16T13:43:15.817Z,36.31
2019-04-16T13:46:19.807Z,36.95
2019-04-16T13:49:35.274Z,37.09
2019-04-16T13:52:39.431Z,37.24
2019-04-16T13:55:55.910Z,37.67
2019-04-16T13:59:17.991Z,37.71
2019-04-16T14:02:41.397Z,36.97
2019-04-16T14:05:45.291Z,37.97
2019-04-16T14:08:49.423Z,37.81
2019-04-16T14:11:53.399Z,37.40
2019-04-16T14:14:57.380Z,37.25
2019-04-16T14:18:01.395Z,36.53
2019-04-16T14:21:05.447Z,37.02
2019-04-16T14:24:12.437Z,36.17
2019-04-16T14:27:16.665Z,36.81
2019-04-16T14:30:23.857Z,36.45
2019-04-16T14:33:51.566Z,35.50
2019-04-16T14:36:57.679Z,36.36
2019-04-16T14:40:23.713Z,36.42
2019-04-16T14:43:33.381Z,36.01
2019-04-16T14:46:37.634Z,35.09
2019-04-16T14:49:41.583Z,35.53
2019-04-16T14:52:45.600Z,34.52
2019-04-16T14:56:00.652Z,34.01
2019-04-16T14:59:10.011Z,34.65
2019-04-16T15:02:36.694Z,34.43
2019-04-16T15:06:02.547Z,32.96
2019-04-16T15:09:31.037Z,33.77
2019-04-16T15:12:45.327Z,34.51
2019-04-16T15:16:06.102Z,34.69
2019-04-16T15:19:18.432Z,34.62
2019-04-16T15:22:30.821Z,34.29
2019-04-16T15:25:52.820Z,35.96
2019-04-16T15:29:06.015Z,35.23
2019-04-16T15:32:20.790Z,36.49
2019-04-16T15:35:31.009Z,37.07
2019-04-16T15:38:42.809Z,37.29
2019-04-16T15:42:15.945Z,37.44
2019-04-16T15:45:21.241Z,36.69
2019-04-16T15:48:51.211Z,36.85
2019-04-16T15:52:26.403Z,37.22
2019-04-16T15:55:35.696Z,37.91
2019-04-16T15:58:52.252Z,36.81
2019-04-16T16:02:13.863Z,37.31
2019-04-16T16:05:31.360Z,38.00
2019-04-16T16:08:39.582Z,38.71
2019-04-16T16:11:57.575Z,37.90
2019-04-16T16:15:01.480Z,38.49
2019-04-16T16:18:05.296Z,38.87
2019-04-16T16:21:09.209Z,38.73
2019-04-16T16:24:13.096Z,38.11
2019-04-16T16:27:17.130Z,38.88
2019-04-16T16:30:20.948Z,38.79
2019-04-16T16:33:24.751Z,38.43
2019-04-16T16:36:29.211Z,38.99
2019-04-16T16:39:34.455Z,39.10
2019-04-16T16:42:39.172Z,39.25
2019-04-16T16:46:05.387Z,39.44
2019-04-16T16:49:09.438Z,39.47
2019-04-16T16:52:41.720Z,40.07
2019-04-16T16:55:52.795Z,40.95
2019-04-16T16:59:15.660Z,40.86
2019-04-16T17:02:27.896Z,41.32
2019-04-16T17:05:34.169Z,41.54
2019-04-16T17:08:38.069Z,42.09
2019-04-16T17:11:43.229Z,42.14
2019-04-16T17:14:47.675Z,41.48
2019-04-16T17:17:51.604Z,42.03
2019-04-16T17:20:57.117Z,42.34
2019-04-16T17:24:01.132Z,41.46
2019-04-16T17:27:05.347Z,41.44
2019-04-16T17:30:11.287Z,41.79
2019-04-16T17:33:15.871Z,41.76
2019-04-16T17:36:20.584Z,42.09
2019-04-16T17:39:42.245Z,42.46
2019-04-16T17:42:44.978Z,42.83
2019-04-16T17:46:10.997Z,43.04
2019-04-16T17:49:27.324Z,43.01
2019-04-16T17:52:50.287Z,42.96
2019-04-16T17:56:16.232Z,43.06
2019-04-16T17:59:29.067Z,43.27
2019-04-16T18:02:55.292Z,43.71
2019-04-16T18:06:10.593Z,43.62
2019-04-16T18:09:40.384Z,43.76
2019-04-16T18:12:56.453Z,43.96
2019-04-16T18:16:29.878Z,43.76
2019-04-16T18:19:52.190Z,44.60
2019-04-16T18:23:11.384Z,45.02
2019-04-16T18:26:43.904Z,45.76
2019-04-16T18:29:53.801Z,46.21
2019-04-16T18:33:15.868Z,46.33
2019-04-16T18:36:28.616Z,46.88
2019-04-16T18:39:38.342Z,46.98
2019-04-16T18:43:16.459Z,48.53
2019-04-16T18:46:27.006Z,50.48
2019-04-16T18:49:31.094Z,53.14
2019-04-16T18:52:36.634Z,54.33
2019-04-16T18:55:41.003Z,53.76
2019-04-16T18:58:44.890Z,57.29
2019-04-16T19:01:51.208Z,57.29
2019-04-16T19:04:55.570Z,62.03
2019-04-16T19:08:00.835Z,63.81
2019-04-16T19:11:06.722Z,63.81
2019-04-16T19:14:13.182Z,66.18
2019-04-16T19:17:17.092Z,66.97
2019-04-16T19:20:20.987Z,67.75
2019-04-16T19:23:25.250Z,69.01
2019-04-16T19:26:30.302Z,69.49
2019-04-16T19:29:34.709Z,69.00
2019-04-16T19:32:40.044Z,71.50
2019-04-16T19:35:44.189Z,72.86
2019-04-16T19:38:49.963Z,72.12
2019-04-16T19:41:57.219Z,72.03
2019-04-16T19:45:00.605Z,74.21
2019-04-16T19:48:05.115Z,74.97
2019-04-16T19:51:09.438Z,75.04
2019-04-16T19:54:13.337Z,73.90
2019-04-16T19:57:17.546Z,73.10
2019-04-16T20:00:22.992Z,75.82
2019-04-16T20:03:30.196Z,75.73
2019-04-16T20:06:35.239Z,76.85
2019-04-16T20:09:39.457Z,77.08
2019-04-16T20:12:43.327Z,77.69
2019-04-16T20:15:47.447Z,78.24
2019-04-16T20:18:52.504Z,78.31
2019-04-16T20:21:56.450Z,77.68
2019-04-16T20:25:00.420Z,77.98
2019-04-16T20:28:08.677Z,78.86
2019-04-16T20:31:14.043Z,78.67
2019-04-16T20:34:18.272Z,78.67
2019-04-16T20:37:23.477Z,78.79
2019-04-16T20:40:27.918Z,77.68
2019-04-16T20:43:31.931Z,79.10
2019-04-16T20:46:37.286Z,78.66
2019-04-16T20:49:42.009Z,79.95
2019-04-16T20:52:46.155Z,78.75
2019-04-16T20:55:50.012Z,79.52
2019-04-16T20:58:53.978Z,81.90
2019-04-16T21:01:58.339Z,79.79
2019-04-16T21:05:04.511Z,82.13
2019-04-16T21:08:08.895Z,81.52
2019-04-16T21:11:12.801Z,81.67
2019-04-16T21:14:18.918Z,81.52
2019-04-16T21:17:23.097Z,81.95
2019-04-16T21:20:27.086Z,81.81
2019-04-16T21:23:31.859Z,80.85
2019-04-16T21:26:37.153Z,82.02
2019-04-16T21:29:41.339Z,80.54
2019-04-16T21:32:54.455Z,82.31
2019-04-16T21:36:03.473Z,82.82
2019-04-16T21:39:17.165Z,82.68
2019-04-16T21:42:19.572Z,82.22
2019-04-16T21:45:23.660Z,82.24
2019-04-16T21:48:27.965Z,83.48
2019-04-16T21:51:32.023Z,84.70
2019-04-16T21:54:36.065Z,84.36
2019-04-16T21:57:42.897Z,84.94
2019-04-16T22:01:05.124Z,84.86
2019-04-16T22:04:14.463Z,83.09
2019-04-16T22:07:18.762Z,83.67
2019-04-16T22:10:24.326Z,83.76
2019-04-16T22:13:28.589Z,83.43
2019-04-16T22:16:32.414Z,83.72
2019-04-16T22:19:36.444Z,83.32
2019-04-16T22:22:40.337Z,84.60
2019-04-16T22:25:44.973Z,83.84
2019-04-16T22:28:48.934Z,83.83
2019-04-16T22:31:57.124Z,84.14
2019-04-16T22:34:58.523Z,84.15
2019-04-16T22:38:02.715Z,82.49
2019-04-16T22:41:28.430Z,83.90
2019-04-16T22:44:46.696Z,82.61
2019-04-16T22:47:51.454Z,83.32
2019-04-16T22:50:55.578Z,83.20
2019-04-16T22:53:59.554Z,83.06
2019-04-16T22:57:08.796Z,84.27
2019-04-16T23:00:26.736Z,83.92
2019-04-16T23:03:31.222Z,83.91
2019-04-16T23:06:37.670Z,82.55
2019-04-16T23:09:40.708Z,82.74
2019-04-16T23:12:44.918Z,84.44
2019-04-16T23:15:48.856Z,85.42
2019-04-16T23:18:53.427Z,86.31
2019-04-16T23:21:58.243Z,85.78
2019-04-16T23:25:02.227Z,86.19
2019-04-16T23:28:09.476Z,88.35
2019-04-16T23:31:11.617Z,88.88
2019-04-16T23:34:15.608Z,87.40
2019-04-16T23:37:23.019Z,89.41
2019-04-16T23:40:25.965Z,89.94
2019-04-16T23:43:54.928Z,87.84
2019-04-16T23:47:16.853Z,89.95
2019-04-16T23:50:45.035Z,89.94
2019-04-16T23:53:52.400Z,88.39
2019-04-16T23:57:10.903Z,89.87
